Gove Airport
YPGV : now visible

Airfield :











YOU CAN JOIN US ON...

 
LOGIN :

Register | Disclaimer

   EN    FR    IT 

 









Legend :    VFR   Marginal VFR   IFR   Intensive IFR   Very Intensive IFR
Visi :
Ceiling :
>= 8 km
>= 3000ft
5 to 8 km
1000 to 3000 ft
1500m to 5 km
500 to 1000 ft
800 to 1500m
200 to 500 ft
< 800m
< 200 ft
Symbols :   Thunderstorms  Fog  Heavy snow  Heavy precipitations  Wind > 20 kt






- Airport Elevation : 192 ft
- IATA code : GOV


YPGV - Gove

CURRENT METAR :
  • 110600Z 05010KT 9999 FEW032 33/21 Q1007

EXPIRED METARs :
  • 110530Z 06009KT 9999 FEW030 33/21 Q1007
  • 110500Z 06010KT 9999 FEW032 33/20 Q1007
  • 110430Z AUTO 06010KT 9999 // NCD 33/21 Q1008 RF00.0/000.0
  • 110400Z 05009KT 9999 FEW030 33/22 Q1008
  • 110330Z 04008KT 020V080 9999 FEW030 33/21 Q1008 RF00.0/000.0

TAF TAF YPGV
Valid from the 11 at 02:00 until the 11 at 14:00 UTC


110046Z 1102/1114 06012KT 9999 SCT025
FM111200 VRB03KT 8000 FU FEW012
TEMPO 1112/1114 0500 FU SCT020



MET'MAP, your aeronautical weather chart ! - Copyright ORBIFLY December 2007 - Disclaimer

ORBIFLY MET'MAP TEAM :

Programming & Development : Alexandra Zaïnal
Concept & original design : Baudouin d'Aumeries
Assistance for programming : Marc-Olivier Méhu
Technical & hardware support : Manuel Goepfert

Contact : metmap@orbifly.com




SOURCES & CREDITS :

   NOAA       Earth
Advisory